createdAt,value
2022-08-26T00:00:00.000Z,19.2
2022-08-26T00:02:00.000Z,19.2
2022-08-26T00:04:00.000Z,19.2
2022-08-26T00:06:00.000Z,19.2
2022-08-26T00:08:00.000Z,19.2
2022-08-26T00:10:00.000Z,19.2
2022-08-26T00:12:00.000Z,19.2
2022-08-26T00:14:00.000Z,19.2
2022-08-26T00:16:00.000Z,19.2
2022-08-26T00:18:00.000Z,19.2
2022-08-26T00:20:00.000Z,19.2
2022-08-26T00:22:00.000Z,19.2
2022-08-26T00:24:00.000Z,19.2
2022-08-26T00:26:00.000Z,19.2
2022-08-26T00:28:00.000Z,19.2
2022-08-26T00:30:00.000Z,19.2
2022-08-26T00:32:00.000Z,19.2
2022-08-26T00:34:00.000Z,19.2
2022-08-26T00:36:00.000Z,19.1
2022-08-26T00:38:00.000Z,19.2
2022-08-26T00:40:00.000Z,19.2
2022-08-26T00:42:00.000Z,19.2
2022-08-26T00:44:00.000Z,19.2
2022-08-26T00:46:00.000Z,19.2
2022-08-26T00:48:00.000Z,19.2
2022-08-26T00:50:00.000Z,19.1
2022-08-26T00:52:00.000Z,19.1
2022-08-26T00:54:00.000Z,19.2
2022-08-26T00:56:00.000Z,19.1
2022-08-26T00:58:00.000Z,19.2
2022-08-26T01:00:00.000Z,19.1
2022-08-26T01:02:00.000Z,19.1
2022-08-26T01:04:00.000Z,19.2
2022-08-26T01:06:00.000Z,19.2
2022-08-26T01:08:00.000Z,19.1
2022-08-26T01:10:00.000Z,19.2
2022-08-26T01:12:00.000Z,19.1
2022-08-26T01:14:00.000Z,19.1
2022-08-26T01:16:00.000Z,19.2
2022-08-26T01:18:00.000Z,19.1
2022-08-26T01:20:00.000Z,19.2
2022-08-26T01:22:00.000Z,19.1
2022-08-26T01:24:00.000Z,19.1
2022-08-26T01:26:00.000Z,19.1
2022-08-26T01:28:00.000Z,19.1
2022-08-26T01:30:00.000Z,19.1
2022-08-26T01:32:00.000Z,19.1
2022-08-26T01:34:00.000Z,19.2
2022-08-26T01:36:00.000Z,19.2
2022-08-26T01:38:00.000Z,19.1
2022-08-26T01:40:00.000Z,19.2
2022-08-26T01:42:00.000Z,19.1
2022-08-26T01:44:00.000Z,19.2
2022-08-26T01:46:00.000Z,19.2
2022-08-26T01:48:00.000Z,19.2
2022-08-26T01:50:00.000Z,19.2
2022-08-26T01:52:00.000Z,19.1
2022-08-26T01:54:00.000Z,19.2
2022-08-26T01:56:00.000Z,19.1
2022-08-26T01:58:00.000Z,19.1
2022-08-26T02:00:00.000Z,19.1
2022-08-26T02:02:00.000Z,19.1
2022-08-26T02:04:00.000Z,19.1
2022-08-26T02:06:00.000Z,19.1
2022-08-26T02:08:00.000Z,19.1
2022-08-26T02:10:00.000Z,19.1
2022-08-26T02:12:00.000Z,19.1
2022-08-26T02:14:00.000Z,19.1
2022-08-26T02:16:00.000Z,19.1
2022-08-26T02:18:00.000Z,19.1
2022-08-26T02:20:00.000Z,19.1
2022-08-26T02:22:00.000Z,19.1
2022-08-26T02:24:00.000Z,19.1
2022-08-26T02:26:00.000Z,19.1
2022-08-26T02:28:00.000Z,19.1
2022-08-26T02:30:00.000Z,19.1
2022-08-26T02:32:00.000Z,19.1
2022-08-26T02:34:00.000Z,19.1
2022-08-26T02:36:00.000Z,19.1
2022-08-26T02:38:00.000Z,19.1
2022-08-26T02:40:00.000Z,19.1
2022-08-26T02:42:00.000Z,19.1
2022-08-26T02:44:00.000Z,19.1
2022-08-26T02:46:00.000Z,19.1
2022-08-26T02:48:00.000Z,19.1
2022-08-26T02:50:00.000Z,19.1
2022-08-26T02:52:00.000Z,19.1
2022-08-26T02:54:00.000Z,19.1
2022-08-26T02:56:00.000Z,19.1
2022-08-26T02:58:00.000Z,19.1
2022-08-26T03:00:00.000Z,19.1
2022-08-26T03:02:00.000Z,19.1
2022-08-26T03:04:00.000Z,19.1
2022-08-26T03:06:00.000Z,19.1
2022-08-26T03:08:00.000Z,19.1
2022-08-26T03:10:00.000Z,19.1
2022-08-26T03:12:00.000Z,19.1
2022-08-26T03:14:00.000Z,19.1
2022-08-26T03:16:00.000Z,19.1
2022-08-26T03:18:00.000Z,19.1
2022-08-26T03:20:00.000Z,19.1
2022-08-26T03:22:00.000Z,19.1
2022-08-26T03:24:00.000Z,19.1
2022-08-26T03:26:00.000Z,19.1
2022-08-26T03:28:00.000Z,19.1
2022-08-26T03:30:00.000Z,19.1
2022-08-26T03:32:00.000Z,19.1
2022-08-26T03:34:00.000Z,19.1
2022-08-26T03:36:00.000Z,19.1
2022-08-26T03:38:00.000Z,19.1
2022-08-26T03:40:00.000Z,19.1
2022-08-26T03:42:00.000Z,19.1
2022-08-26T03:44:00.000Z,19.1
2022-08-26T03:46:00.000Z,19.1
2022-08-26T03:48:00.000Z,19.1
2022-08-26T03:50:00.000Z,19.0
2022-08-26T03:52:00.000Z,19.1
2022-08-26T03:54:00.000Z,19.1
2022-08-26T03:56:00.000Z,19.1
2022-08-26T03:58:00.000Z,19.1
2022-08-26T04:00:00.000Z,19.0
2022-08-26T04:02:00.000Z,19.0
2022-08-26T04:04:00.000Z,19.0
2022-08-26T04:06:00.000Z,19.0
2022-08-26T04:08:00.000Z,19.0
2022-08-26T04:10:00.000Z,19.0
2022-08-26T04:12:00.000Z,19.0
2022-08-26T04:14:00.000Z,18.9
2022-08-26T04:16:00.000Z,19.0
2022-08-26T04:18:00.000Z,19.0
2022-08-26T04:20:00.000Z,19.0
2022-08-26T04:22:00.000Z,19.1
2022-08-26T04:24:00.000Z,19.0
2022-08-26T04:26:00.000Z,19.0
2022-08-26T04:28:00.000Z,19.1
2022-08-26T04:30:00.000Z,19.0
2022-08-26T04:32:00.000Z,19.0
2022-08-26T04:34:00.000Z,18.9
2022-08-26T04:36:00.000Z,19.0
2022-08-26T04:38:00.000Z,19.0
2022-08-26T04:40:00.000Z,19.0
2022-08-26T04:42:00.000Z,18.9
2022-08-26T04:44:00.000Z,19.0
2022-08-26T04:46:00.000Z,19.0
2022-08-26T04:48:00.000Z,19.0
2022-08-26T04:50:00.000Z,19.0
2022-08-26T04:52:00.000Z,18.9
2022-08-26T04:54:00.000Z,19.0
2022-08-26T04:56:00.000Z,19.0
2022-08-26T04:58:00.000Z,19.0
2022-08-26T05:00:00.000Z,19.0
2022-08-26T05:02:00.000Z,19.0
2022-08-26T05:04:00.000Z,19.0
2022-08-26T05:06:00.000Z,19.0
2022-08-26T05:08:00.000Z,19.0
2022-08-26T05:10:00.000Z,18.9
2022-08-26T05:12:00.000Z,18.9
2022-08-26T05:14:00.000Z,18.9
2022-08-26T05:16:00.000Z,19.0
2022-08-26T05:18:00.000Z,18.9
2022-08-26T05:20:00.000Z,19.0
2022-08-26T05:22:00.000Z,18.9
2022-08-26T05:24:00.000Z,18.9
2022-08-26T05:26:00.000Z,18.9
2022-08-26T05:28:00.000Z,18.9
2022-08-26T05:30:00.000Z,19.0
2022-08-26T05:32:00.000Z,18.9
2022-08-26T05:34:00.000Z,19.0
2022-08-26T05:36:00.000Z,19.0
2022-08-26T05:38:00.000Z,18.9
2022-08-26T05:40:00.000Z,18.9
2022-08-26T05:42:00.000Z,18.9
2022-08-26T05:44:00.000Z,18.9
2022-08-26T05:46:00.000Z,18.9
2022-08-26T05:48:00.000Z,18.9
2022-08-26T05:50:00.000Z,18.9
2022-08-26T05:52:00.000Z,18.9
2022-08-26T05:54:00.000Z,18.9
2022-08-26T05:56:00.000Z,18.9
2022-08-26T05:58:00.000Z,18.9
2022-08-26T06:00:00.000Z,18.8
2022-08-26T06:02:00.000Z,18.9
2022-08-26T06:04:00.000Z,18.9
2022-08-26T06:06:00.000Z,18.8
2022-08-26T06:08:00.000Z,18.9
2022-08-26T06:10:00.000Z,18.9
2022-08-26T06:12:00.000Z,18.9
2022-08-26T06:14:00.000Z,18.8
2022-08-26T06:16:00.000Z,18.9
2022-08-26T06:18:00.000Z,18.9
2022-08-26T06:20:00.000Z,18.9
2022-08-26T06:22:00.000Z,18.9
2022-08-26T06:24:00.000Z,18.9
2022-08-26T06:26:00.000Z,18.9
2022-08-26T06:28:00.000Z,18.8
2022-08-26T06:30:00.000Z,18.9
2022-08-26T06:32:00.000Z,18.9
2022-08-26T06:34:00.000Z,18.9
2022-08-26T06:36:00.000Z,18.9
2022-08-26T06:38:00.000Z,19.0
2022-08-26T06:40:00.000Z,18.9
2022-08-26T06:42:00.000Z,18.9
2022-08-26T06:44:00.000Z,18.9
2022-08-26T06:46:00.000Z,18.9
2022-08-26T06:48:00.000Z,18.9
2022-08-26T06:50:00.000Z,18.8
2022-08-26T06:52:00.000Z,18.9
2022-08-26T06:54:00.000Z,18.9
2022-08-26T06:56:00.000Z,18.8
2022-08-26T06:58:00.000Z,18.8
2022-08-26T07:00:00.000Z,18.9
2022-08-26T07:02:00.000Z,18.8
2022-08-26T07:04:00.000Z,18.9
2022-08-26T07:06:00.000Z,18.9
2022-08-26T07:08:00.000Z,18.8
2022-08-26T07:10:00.000Z,18.9
2022-08-26T07:12:00.000Z,18.9
2022-08-26T07:14:00.000Z,18.8
2022-08-26T07:16:00.000Z,18.8
2022-08-26T07:18:00.000Z,18.9
2022-08-26T07:20:00.000Z,18.8
2022-08-26T07:22:00.000Z,18.8
2022-08-26T07:24:00.000Z,18.8
2022-08-26T07:26:00.000Z,18.8
2022-08-26T07:28:00.000Z,18.8
2022-08-26T07:30:00.000Z,18.9
2022-08-26T07:32:00.000Z,18.8
2022-08-26T07:34:00.000Z,18.8
2022-08-26T07:36:00.000Z,18.8
2022-08-26T07:38:00.000Z,18.8
2022-08-26T07:40:00.000Z,18.8
2022-08-26T07:42:00.000Z,18.9
2022-08-26T07:44:00.000Z,18.9
2022-08-26T07:46:00.000Z,18.9
2022-08-26T07:48:00.000Z,18.9
2022-08-26T07:50:00.000Z,18.9
2022-08-26T07:52:00.000Z,18.8
2022-08-26T07:54:00.000Z,18.9
2022-08-26T07:56:00.000Z,18.9
2022-08-26T07:58:00.000Z,18.9
2022-08-26T08:00:00.000Z,18.8
2022-08-26T08:02:00.000Z,18.8
2022-08-26T08:04:00.000Z,18.9
2022-08-26T08:06:00.000Z,18.9
2022-08-26T08:08:00.000Z,18.9
2022-08-26T08:10:00.000Z,18.9
2022-08-26T08:12:00.000Z,18.8
2022-08-26T08:14:00.000Z,18.9
2022-08-26T08:16:00.000Z,18.8
2022-08-26T08:18:00.000Z,18.9
2022-08-26T08:20:00.000Z,18.9
2022-08-26T08:22:00.000Z,18.9
2022-08-26T08:24:00.000Z,18.9
2022-08-26T08:26:00.000Z,18.9
2022-08-26T08:28:00.000Z,18.8
2022-08-26T08:30:00.000Z,18.8
2022-08-26T08:32:00.000Z,18.9
2022-08-26T08:34:00.000Z,18.9
2022-08-26T08:36:00.000Z,18.8
2022-08-26T08:38:00.000Z,18.9
2022-08-26T08:40:00.000Z,18.8
2022-08-26T08:42:00.000Z,18.9
2022-08-26T08:44:00.000Z,18.9
2022-08-26T08:46:00.000Z,18.9
2022-08-26T08:48:00.000Z,18.9
2022-08-26T08:50:00.000Z,18.9
2022-08-26T08:52:00.000Z,18.9
2022-08-26T08:54:00.000Z,18.9
2022-08-26T08:56:00.000Z,18.9
2022-08-26T08:58:00.000Z,18.9
2022-08-26T09:00:00.000Z,18.9
2022-08-26T09:02:00.000Z,18.9
2022-08-26T09:04:00.000Z,18.9
2022-08-26T09:06:00.000Z,18.9
2022-08-26T09:08:00.000Z,18.9
2022-08-26T09:10:00.000Z,18.9
2022-08-26T09:12:00.000Z,18.9
2022-08-26T09:14:00.000Z,18.9
2022-08-26T09:16:00.000Z,18.8
2022-08-26T09:18:00.000Z,18.9
2022-08-26T09:20:00.000Z,18.8
2022-08-26T09:22:00.000Z,18.8
2022-08-26T09:24:00.000Z,18.9
2022-08-26T09:26:00.000Z,18.9
2022-08-26T09:28:00.000Z,18.9
2022-08-26T09:30:00.000Z,18.8
2022-08-26T09:32:00.000Z,18.9
2022-08-26T09:34:00.000Z,18.9
2022-08-26T09:36:00.000Z,18.9
2022-08-26T09:38:00.000Z,18.9
2022-08-26T09:40:00.000Z,18.9
2022-08-26T09:42:00.000Z,18.9
2022-08-26T09:44:00.000Z,18.9
2022-08-26T09:46:00.000Z,18.9
2022-08-26T09:48:00.000Z,18.9
2022-08-26T09:50:00.000Z,18.9
2022-08-26T09:52:00.000Z,18.9
2022-08-26T09:54:00.000Z,18.9
2022-08-26T09:56:00.000Z,18.9
2022-08-26T09:58:00.000Z,18.9
2022-08-26T10:00:00.000Z,18.9
2022-08-26T10:04:00.000Z,18.9
2022-08-26T10:06:00.000Z,18.9
2022-08-26T10:08:00.000Z,18.9
2022-08-26T10:10:00.000Z,18.9
2022-08-26T10:12:00.000Z,18.9
2022-08-26T10:14:00.000Z,18.9
2022-08-26T10:16:00.000Z,18.9
2022-08-26T10:18:00.000Z,18.9
2022-08-26T10:20:00.000Z,18.9
2022-08-26T10:22:00.000Z,18.9
2022-08-26T10:24:00.000Z,18.9
2022-08-26T10:26:00.000Z,18.9
2022-08-26T10:28:00.000Z,18.9
2022-08-26T10:30:00.000Z,18.9
2022-08-26T10:32:00.000Z,19.0
2022-08-26T10:34:00.000Z,18.9
2022-08-26T10:36:00.000Z,18.9
2022-08-26T10:38:00.000Z,18.9
2022-08-26T10:40:00.000Z,18.9
2022-08-26T10:42:00.000Z,18.9
2022-08-26T10:44:00.000Z,18.9
2022-08-26T10:46:00.000Z,18.9
2022-08-26T10:48:00.000Z,18.9
2022-08-26T10:50:00.000Z,18.9
2022-08-26T10:52:00.000Z,18.9
2022-08-26T10:54:00.000Z,18.9
2022-08-26T10:56:00.000Z,18.9
2022-08-26T10:58:00.000Z,19.0
2022-08-26T11:00:00.000Z,18.9
2022-08-26T11:02:00.000Z,18.9
2022-08-26T11:04:00.000Z,18.9
2022-08-26T11:06:00.000Z,18.9
2022-08-26T11:08:00.000Z,19.0
2022-08-26T11:10:00.000Z,18.9
2022-08-26T11:12:00.000Z,19.0
2022-08-26T11:14:00.000Z,18.9
2022-08-26T11:16:00.000Z,19.0
2022-08-26T11:18:00.000Z,19.0
2022-08-26T11:20:00.000Z,19.0
2022-08-26T11:22:00.000Z,19.0
2022-08-26T11:24:00.000Z,19.0
2022-08-26T11:26:00.000Z,19.1
2022-08-26T11:28:00.000Z,19.0
2022-08-26T11:30:00.000Z,19.0
2022-08-26T11:32:00.000Z,19.1
2022-08-26T11:34:00.000Z,19.0
2022-08-26T11:36:00.000Z,19.0
2022-08-26T11:38:00.000Z,19.1
2022-08-26T11:40:00.000Z,19.1
2022-08-26T11:42:00.000Z,19.1
2022-08-26T11:44:00.000Z,19.1
2022-08-26T11:46:00.000Z,19.0
2022-08-26T11:48:00.000Z,19.1
2022-08-26T11:50:00.000Z,19.1
2022-08-26T11:52:00.000Z,19.1
2022-08-26T11:54:00.000Z,19.1
2022-08-26T11:56:00.000Z,19.1
2022-08-26T11:58:00.000Z,19.1
2022-08-26T12:00:00.000Z,19.1
2022-08-26T12:02:00.000Z,19.1
2022-08-26T12:04:00.000Z,19.1
2022-08-26T12:06:00.000Z,19.1
2022-08-26T12:08:00.000Z,19.1
2022-08-26T12:10:00.000Z,19.1
2022-08-26T12:12:00.000Z,19.1
2022-08-26T12:14:00.000Z,19.1
2022-08-26T12:16:00.000Z,19.1
2022-08-26T12:18:00.000Z,19.1
2022-08-26T12:20:00.000Z,19.1
2022-08-26T12:22:00.000Z,19.1
2022-08-26T12:24:00.000Z,19.1
2022-08-26T12:26:00.000Z,19.1
2022-08-26T12:28:00.000Z,19.1
2022-08-26T12:30:00.000Z,19.1
2022-08-26T12:32:00.000Z,19.1
2022-08-26T12:34:00.000Z,19.1
2022-08-26T12:36:00.000Z,19.2
2022-08-26T12:38:00.000Z,19.1
2022-08-26T12:40:00.000Z,19.1
2022-08-26T12:42:00.000Z,19.2
2022-08-26T12:44:00.000Z,19.2
2022-08-26T12:46:00.000Z,19.2
2022-08-26T12:48:00.000Z,19.2
2022-08-26T12:50:00.000Z,19.2
2022-08-26T12:52:00.000Z,19.2
2022-08-26T12:54:00.000Z,19.2
2022-08-26T12:56:00.000Z,19.2
2022-08-26T12:58:00.000Z,19.2
2022-08-26T13:00:00.000Z,19.2
2022-08-26T13:02:00.000Z,19.2
2022-08-26T13:04:00.000Z,19.2
2022-08-26T13:06:00.000Z,19.2
2022-08-26T13:08:00.000Z,19.2
2022-08-26T13:10:00.000Z,19.2
2022-08-26T13:12:00.000Z,19.2
2022-08-26T13:14:00.000Z,19.2
2022-08-26T13:16:00.000Z,19.2
2022-08-26T13:18:00.000Z,19.2
2022-08-26T13:20:00.000Z,19.2
2022-08-26T13:22:00.000Z,19.2
2022-08-26T13:24:00.000Z,19.2
2022-08-26T13:26:00.000Z,19.2
2022-08-26T13:28:00.000Z,19.2
2022-08-26T13:30:00.000Z,19.2
2022-08-26T13:32:00.000Z,19.2
2022-08-26T13:34:00.000Z,19.2
2022-08-26T13:36:00.000Z,19.3
2022-08-26T13:38:00.000Z,19.2
2022-08-26T13:40:00.000Z,19.3
2022-08-26T13:42:00.000Z,19.3
2022-08-26T13:44:00.000Z,19.2
2022-08-26T13:46:00.000Z,19.3
2022-08-26T13:48:00.000Z,19.3
2022-08-26T13:50:00.000Z,19.3
2022-08-26T13:52:00.000Z,19.3
2022-08-26T13:54:00.000Z,19.2
2022-08-26T13:56:00.000Z,19.4
2022-08-26T13:58:00.000Z,19.3
2022-08-26T14:00:00.000Z,19.4
2022-08-26T14:02:00.000Z,19.3
2022-08-26T14:04:00.000Z,19.3
2022-08-26T14:06:00.000Z,19.4
2022-08-26T14:08:00.000Z,19.4
2022-08-26T14:10:00.000Z,19.4
2022-08-26T14:12:00.000Z,19.4
2022-08-26T14:14:00.000Z,19.4
2022-08-26T14:16:00.000Z,19.4
2022-08-26T14:18:00.000Z,19.3
2022-08-26T14:20:00.000Z,19.3
2022-08-26T14:22:00.000Z,19.4
2022-08-26T14:24:00.000Z,19.4
2022-08-26T14:26:00.000Z,19.4
2022-08-26T14:28:00.000Z,19.4
2022-08-26T14:30:00.000Z,19.4
2022-08-26T14:32:00.000Z,19.4
2022-08-26T14:34:00.000Z,19.3
2022-08-26T14:36:00.000Z,19.4
2022-08-26T14:38:00.000Z,19.4
2022-08-26T14:40:00.000Z,19.4
2022-08-26T14:42:00.000Z,19.4
2022-08-26T14:44:00.000Z,19.4
2022-08-26T14:46:00.000Z,19.4
2022-08-26T14:48:00.000Z,19.4
2022-08-26T14:50:00.000Z,19.3
2022-08-26T14:52:00.000Z,19.4
2022-08-26T14:54:00.000Z,19.4
2022-08-26T14:56:00.000Z,19.4
2022-08-26T14:58:00.000Z,19.4
2022-08-26T15:00:00.000Z,19.4
2022-08-26T15:02:00.000Z,19.4
2022-08-26T15:04:00.000Z,19.4
2022-08-26T15:06:00.000Z,19.4
2022-08-26T15:08:00.000Z,19.4
2022-08-26T15:10:00.000Z,19.4
2022-08-26T15:12:00.000Z,19.4
2022-08-26T15:14:00.000Z,19.4
2022-08-26T15:16:00.000Z,19.4
2022-08-26T15:18:00.000Z,19.4
2022-08-26T15:20:00.000Z,19.5
2022-08-26T15:22:00.000Z,19.4
2022-08-26T15:24:00.000Z,19.4
2022-08-26T15:26:00.000Z,19.4
2022-08-26T15:28:00.000Z,19.4
2022-08-26T15:30:00.000Z,19.4
2022-08-26T15:32:00.000Z,19.4
2022-08-26T15:34:00.000Z,19.5
2022-08-26T15:36:00.000Z,19.4
2022-08-26T15:38:00.000Z,19.5
2022-08-26T15:40:00.000Z,19.5
2022-08-26T15:42:00.000Z,19.4
2022-08-26T15:44:00.000Z,19.5
2022-08-26T15:46:00.000Z,19.5
2022-08-26T15:48:00.000Z,19.5
2022-08-26T15:50:00.000Z,19.6
2022-08-26T15:52:00.000Z,19.5
2022-08-26T15:54:00.000Z,19.5
2022-08-26T15:56:00.000Z,19.5
2022-08-26T15:58:00.000Z,19.5
2022-08-26T16:00:00.000Z,19.5
2022-08-26T16:02:00.000Z,19.5
2022-08-26T16:04:00.000Z,19.5
2022-08-26T16:06:00.000Z,19.5
2022-08-26T16:08:00.000Z,19.5
2022-08-26T16:10:00.000Z,19.5
2022-08-26T16:12:00.000Z,19.5
2022-08-26T16:14:00.000Z,19.6
2022-08-26T16:16:00.000Z,19.5
2022-08-26T16:18:00.000Z,19.5
2022-08-26T16:20:00.000Z,19.6
2022-08-26T16:22:00.000Z,19.5
2022-08-26T16:24:00.000Z,19.5
2022-08-26T16:26:00.000Z,19.6
2022-08-26T16:28:00.000Z,19.6
2022-08-26T16:30:00.000Z,19.6
2022-08-26T16:32:00.000Z,19.5
2022-08-26T16:34:00.000Z,19.5
2022-08-26T16:36:00.000Z,19.5
2022-08-26T16:38:00.000Z,19.5
2022-08-26T16:40:00.000Z,19.6
2022-08-26T16:42:00.000Z,19.5
2022-08-26T16:44:00.000Z,19.6
2022-08-26T16:46:00.000Z,19.6
2022-08-26T16:48:00.000Z,19.5
2022-08-26T16:50:00.000Z,19.6
2022-08-26T16:52:00.000Z,19.5
2022-08-26T16:54:00.000Z,19.6
2022-08-26T16:56:00.000Z,19.6
2022-08-26T16:58:00.000Z,19.6
2022-08-26T17:00:00.000Z,19.6
2022-08-26T17:02:00.000Z,19.6
2022-08-26T17:04:00.000Z,19.6
2022-08-26T17:06:00.000Z,19.6
2022-08-26T17:08:00.000Z,19.6
2022-08-26T17:10:00.000Z,19.6
2022-08-26T17:12:00.000Z,19.6
2022-08-26T17:14:00.000Z,19.6
2022-08-26T17:16:00.000Z,19.6
2022-08-26T17:18:00.000Z,19.6
2022-08-26T17:20:00.000Z,19.6
2022-08-26T17:22:00.000Z,19.6
2022-08-26T17:24:00.000Z,19.6
2022-08-26T17:26:00.000Z,19.6
2022-08-26T17:28:00.000Z,19.6
2022-08-26T17:30:00.000Z,19.6
2022-08-26T17:32:00.000Z,19.6
2022-08-26T17:34:00.000Z,19.6
2022-08-26T17:36:00.000Z,19.6
2022-08-26T17:38:00.000Z,19.6
2022-08-26T17:40:00.000Z,19.6
2022-08-26T17:42:00.000Z,19.6
2022-08-26T17:44:00.000Z,19.6
2022-08-26T17:46:00.000Z,19.7
2022-08-26T17:48:00.000Z,19.6
2022-08-26T17:50:00.000Z,19.6
2022-08-26T17:52:00.000Z,19.6
2022-08-26T17:54:00.000Z,19.6
2022-08-26T17:56:00.000Z,19.6
2022-08-26T17:58:00.000Z,19.6
2022-08-26T18:00:00.000Z,19.6
2022-08-26T18:02:00.000Z,19.6
2022-08-26T18:04:00.000Z,19.6
2022-08-26T18:06:00.000Z,19.7
2022-08-26T18:08:00.000Z,19.6
2022-08-26T18:10:00.000Z,19.6
2022-08-26T18:12:00.000Z,19.6
2022-08-26T18:14:00.000Z,19.6
2022-08-26T18:16:00.000Z,19.6
2022-08-26T18:18:00.000Z,19.6
2022-08-26T18:20:00.000Z,19.6
2022-08-26T18:22:00.000Z,19.6
2022-08-26T18:24:00.000Z,19.6
2022-08-26T18:26:00.000Z,19.6
2022-08-26T18:28:00.000Z,19.6
2022-08-26T18:30:00.000Z,19.6
2022-08-26T18:32:00.000Z,19.6
2022-08-26T18:34:00.000Z,19.7
2022-08-26T18:36:00.000Z,19.6
2022-08-26T18:38:00.000Z,19.7
2022-08-26T18:40:00.000Z,19.6
2022-08-26T18:42:00.000Z,19.7
2022-08-26T18:44:00.000Z,19.6
2022-08-26T18:46:00.000Z,19.7
2022-08-26T18:48:00.000Z,19.7
2022-08-26T18:50:00.000Z,19.7
2022-08-26T18:52:00.000Z,19.6
2022-08-26T18:54:00.000Z,19.6
2022-08-26T18:56:00.000Z,19.7
2022-08-26T18:58:00.000Z,19.7
2022-08-26T19:00:00.000Z,19.7
2022-08-26T19:02:00.000Z,19.7
2022-08-26T19:04:00.000Z,19.7
2022-08-26T19:06:00.000Z,19.7
2022-08-26T19:08:00.000Z,19.7
2022-08-26T19:10:00.000Z,19.6
2022-08-26T19:12:00.000Z,19.6
2022-08-26T19:14:00.000Z,19.8
2022-08-26T19:16:00.000Z,19.7
2022-08-26T19:18:00.000Z,19.7
2022-08-26T19:20:00.000Z,19.6
2022-08-26T19:22:00.000Z,19.6
2022-08-26T19:24:00.000Z,19.7
2022-08-26T19:26:00.000Z,19.7
2022-08-26T19:28:00.000Z,19.6
2022-08-26T19:30:00.000Z,19.7
2022-08-26T19:32:00.000Z,19.8
2022-08-26T19:34:00.000Z,19.7
2022-08-26T19:36:00.000Z,19.8
2022-08-26T19:38:00.000Z,19.8
2022-08-26T19:40:00.000Z,19.7
2022-08-26T19:42:00.000Z,19.7
2022-08-26T19:44:00.000Z,19.7
2022-08-26T19:46:00.000Z,19.7
2022-08-26T19:48:00.000Z,19.7
2022-08-26T19:50:00.000Z,19.7
2022-08-26T19:52:00.000Z,19.7
2022-08-26T19:54:00.000Z,19.7
2022-08-26T19:56:00.000Z,19.7
2022-08-26T19:58:00.000Z,19.8
2022-08-26T20:00:00.000Z,19.7
2022-08-26T20:02:00.000Z,19.7
2022-08-26T20:04:00.000Z,19.8
2022-08-26T20:06:00.000Z,19.7
2022-08-26T20:08:00.000Z,19.8
2022-08-26T20:10:00.000Z,19.8
2022-08-26T20:12:00.000Z,19.7
2022-08-26T20:14:00.000Z,19.8
2022-08-26T20:16:00.000Z,19.7
2022-08-26T20:18:00.000Z,19.7
2022-08-26T20:20:00.000Z,19.7
2022-08-26T20:22:00.000Z,19.8
2022-08-26T20:24:00.000Z,19.8
2022-08-26T20:26:00.000Z,19.8
2022-08-26T20:28:00.000Z,19.8
2022-08-26T20:30:00.000Z,19.7
2022-08-26T20:32:00.000Z,19.8
2022-08-26T20:34:00.000Z,19.8
2022-08-26T20:36:00.000Z,19.8
2022-08-26T20:38:00.000Z,19.8
2022-08-26T20:40:00.000Z,19.7
2022-08-26T20:42:00.000Z,19.8
2022-08-26T20:44:00.000Z,19.8
2022-08-26T20:46:00.000Z,19.8
2022-08-26T20:48:00.000Z,19.8
2022-08-26T20:50:00.000Z,19.8
2022-08-26T20:52:00.000Z,19.8
2022-08-26T20:54:00.000Z,19.7
2022-08-26T20:56:00.000Z,19.7
2022-08-26T20:58:00.000Z,19.8
2022-08-26T21:00:00.000Z,19.8
2022-08-26T21:02:00.000Z,19.7
2022-08-26T21:04:00.000Z,19.8
2022-08-26T21:06:00.000Z,19.7
2022-08-26T21:08:00.000Z,19.8
2022-08-26T21:10:00.000Z,19.7
2022-08-26T21:12:00.000Z,19.8
2022-08-26T21:14:00.000Z,19.7
2022-08-26T21:16:00.000Z,19.8
2022-08-26T21:18:00.000Z,19.7
2022-08-26T21:20:00.000Z,19.7
2022-08-26T21:22:00.000Z,19.7
2022-08-26T21:24:00.000Z,19.7
2022-08-26T21:26:00.000Z,19.8
2022-08-26T21:28:00.000Z,19.7
2022-08-26T21:30:00.000Z,19.7
2022-08-26T21:32:00.000Z,19.7
2022-08-26T21:34:00.000Z,19.7
2022-08-26T21:36:00.000Z,19.7
2022-08-26T21:38:00.000Z,19.7
2022-08-26T21:40:00.000Z,19.8
2022-08-26T21:42:00.000Z,19.8
2022-08-26T21:44:00.000Z,19.8
2022-08-26T21:46:00.000Z,19.7
2022-08-26T21:48:00.000Z,19.6
2022-08-26T21:50:00.000Z,19.7
2022-08-26T21:52:00.000Z,19.8
2022-08-26T21:54:00.000Z,19.7
2022-08-26T21:56:00.000Z,19.7
2022-08-26T21:58:00.000Z,19.7
2022-08-26T22:00:00.000Z,19.7
2022-08-26T22:02:00.000Z,19.7
2022-08-26T22:04:00.000Z,19.8
2022-08-26T22:06:00.000Z,19.7
2022-08-26T22:08:00.000Z,19.7
2022-08-26T22:10:00.000Z,19.7
2022-08-26T22:12:00.000Z,19.6
2022-08-26T22:14:00.000Z,19.7
2022-08-26T22:16:00.000Z,19.7
2022-08-26T22:18:00.000Z,19.7
2022-08-26T22:20:00.000Z,19.7
2022-08-26T22:22:00.000Z,19.7
2022-08-26T22:24:00.000Z,19.7
2022-08-26T22:26:00.000Z,19.7
2022-08-26T22:28:00.000Z,19.7
2022-08-26T22:30:00.000Z,19.7
2022-08-26T22:32:00.000Z,19.7
2022-08-26T22:34:00.000Z,19.7
2022-08-26T22:36:00.000Z,19.6
2022-08-26T22:38:00.000Z,19.7
2022-08-26T22:40:00.000Z,19.6
2022-08-26T22:42:00.000Z,19.6
2022-08-26T22:44:00.000Z,19.6
2022-08-26T22:46:00.000Z,19.6
2022-08-26T22:48:00.000Z,19.6
2022-08-26T22:50:00.000Z,19.6
2022-08-26T22:52:00.000Z,19.6
2022-08-26T22:54:00.000Z,19.6
2022-08-26T22:56:00.000Z,19.7
2022-08-26T22:58:00.000Z,19.7
2022-08-26T23:00:00.000Z,19.7
2022-08-26T23:02:00.000Z,19.7
2022-08-26T23:04:00.000Z,19.7
2022-08-26T23:06:00.000Z,19.6
2022-08-26T23:08:00.000Z,19.7
2022-08-26T23:10:00.000Z,19.7
2022-08-26T23:12:00.000Z,19.7
2022-08-26T23:14:00.000Z,19.6
2022-08-26T23:16:00.000Z,19.7
2022-08-26T23:18:00.000Z,19.6
2022-08-26T23:20:00.000Z,19.6
2022-08-26T23:22:00.000Z,19.6
2022-08-26T23:24:00.000Z,19.7
2022-08-26T23:26:00.000Z,19.7
2022-08-26T23:28:00.000Z,19.7
2022-08-26T23:30:00.000Z,19.6
2022-08-26T23:32:00.000Z,19.6
2022-08-26T23:34:00.000Z,19.7
2022-08-26T23:36:00.000Z,19.7
2022-08-26T23:38:00.000Z,19.6
2022-08-26T23:40:00.000Z,19.7
2022-08-26T23:42:00.000Z,19.6
2022-08-26T23:44:00.000Z,19.6
2022-08-26T23:46:00.000Z,19.6
2022-08-26T23:48:00.000Z,19.6
2022-08-26T23:50:00.000Z,19.6
2022-08-26T23:52:00.000Z,19.6
2022-08-26T23:54:00.000Z,19.6
2022-08-26T23:56:00.000Z,19.6
2022-08-26T23:58:00.000Z,19.6
